Time,TemperatureF,DewpointF,PressureIn,WindDirection,WindDirectionDegrees,WindSpeedMPH,WindSpeedGustMPH,Humidity,HourlyPrecipIn,Conditions,Clouds,dailyrainin,SoftwareType,DateUTC
2013-05-23 00:05:00,54.9,51.4,29.97,East,101,0.0,2.0,88,0.00,,,0.00,Wunderground v.1.15,2013-05-23 04:05:00,
2013-05-23 00:10:00,54.8,51.3,29.97,East,101,1.0,2.0,88,0.00,,,0.00,Wunderground v.1.15,2013-05-23 04:10:00,
2013-05-23 00:15:00,54.8,51.3,29.96,East,101,0.0,1.0,88,0.00,,,0.00,Wunderground v.1.15,2013-05-23 04:15:00,
2013-05-23 00:20:00,54.8,51.3,29.96,East,101,0.0,1.0,88,0.00,,,0.00,Wunderground v.1.15,2013-05-23 04:20:00,
2013-05-23 00:25:00,54.9,51.4,29.96,East,101,0.0,0.0,88,0.00,,,0.00,Wunderground v.1.15,2013-05-23 04:25:00,
2013-05-23 00:31:00,55.0,51.5,29.96,East,101,0.0,0.0,88,0.00,,,0.00,Wunderground v.1.15,2013-05-23 04:31:00,
2013-05-23 00:37:00,54.9,51.4,29.96,East,101,0.0,2.0,88,0.00,,,0.00,Wunderground v.1.15,2013-05-23 04:37:00,
2013-05-23 00:43:00,54.9,51.4,29.95,East,101,0.0,0.0,88,0.00,,,0.00,Wunderground v.1.15,2013-05-23 04:43:00,
2013-05-23 00:49:00,54.9,51.4,29.95,East,101,0.0,0.0,88,0.00,,,0.00,Wunderground v.1.15,2013-05-23 04:49:00,
2013-05-23 00:54:00,54.9,51.4,29.95,East,101,0.0,0.0,88,0.00,,,0.00,Wunderground v.1.15,2013-05-23 04:54:00,
2013-05-23 00:59:00,55.0,51.5,29.95,East,101,0.0,0.0,88,0.00,,,0.00,Wunderground v.1.15,2013-05-23 04:59:00,
2013-05-23 01:05:00,55.0,51.5,29.95,East,101,0.0,0.0,88,0.00,,,0.00,Wunderground v.1.15,2013-05-23 05:05:00,
2013-05-23 01:11:00,55.0,51.5,29.95,East,101,0.0,0.0,88,0.00,,,0.00,Wunderground v.1.15,2013-05-23 05:11:00,
2013-05-23 01:17:00,55.0,51.5,29.94,East,101,0.0,0.0,88,0.00,,,0.00,Wunderground v.1.15,2013-05-23 05:17:00,
2013-05-23 01:22:00,55.1,51.6,29.95,East,101,0.0,1.0,88,0.00,,,0.00,Wunderground v.1.15,2013-05-23 05:22:00,
2013-05-23 01:28:00,55.0,51.5,29.95,East,101,0.0,1.0,88,0.00,,,0.00,Wunderground v.1.15,2013-05-23 05:28:00,
2013-05-23 01:34:00,55.1,51.6,29.95,East,101,0.0,0.0,88,0.00,,,0.00,Wunderground v.1.15,2013-05-23 05:34:00,
2013-05-23 01:39:00,55.1,51.6,29.95,East,101,0.0,0.0,88,0.00,,,0.00,Wunderground v.1.15,2013-05-23 05:39:00,
2013-05-23 01:45:00,55.1,51.6,29.95,East,101,0.0,0.0,88,0.00,,,0.00,Wunderground v.1.15,2013-05-23 05:45:00,
2013-05-23 01:51:00,55.1,51.6,29.95,East,101,0.0,0.0,88,0.00,,,0.00,Wunderground v.1.15,2013-05-23 05:51:00,
2013-05-23 01:57:00,55.2,51.7,29.95,East,101,1.0,1.0,88,0.00,,,0.00,Wunderground v.1.15,2013-05-23 05:57:00,
2013-05-23 02:02:00,55.1,51.6,29.95,East,101,0.0,0.0,88,0.00,,,0.00,Wunderground v.1.15,2013-05-23 06:02:00,
2013-05-23 02:08:00,55.1,51.6,29.94,East,101,0.0,0.0,88,0.00,,,0.01,Wunderground v.1.15,2013-05-23 06:08:00,
2013-05-23 02:14:00,55.1,51.6,29.94,East,101,0.0,0.0,88,0.00,,,0.01,Wunderground v.1.15,2013-05-23 06:14:00,
2013-05-23 02:20:00,55.1,51.6,29.94,East,101,1.0,1.0,88,0.00,,,0.01,Wunderground v.1.15,2013-05-23 06:20:00,
2013-05-23 02:25:00,55.2,51.7,29.94,East,101,0.0,0.0,88,0.00,,,0.01,Wunderground v.1.15,2013-05-23 06:25:00,
2013-05-23 02:30:00,55.2,51.7,29.93,East,101,0.0,1.0,88,0.00,,,0.01,Wunderground v.1.15,2013-05-23 06:30:00,
2013-05-23 02:35:00,55.2,51.7,29.93,East,101,0.0,1.0,88,0.00,,,0.01,Wunderground v.1.15,2013-05-23 06:35:00,
2013-05-23 02:40:00,55.3,51.8,29.93,East,101,0.0,1.0,88,0.00,,,0.01,Wunderground v.1.15,2013-05-23 06:40:00,
2013-05-23 02:45:00,55.3,51.8,29.92,East,101,0.0,1.0,88,0.00,,,0.01,Wunderground v.1.15,2013-05-23 06:45:00,
2013-05-23 02:50:00,55.4,51.9,29.93,East,101,0.0,1.0,88,0.00,,,0.01,Wunderground v.1.15,2013-05-23 06:50:00,
2013-05-23 02:55:00,55.5,52.0,29.93,East,101,0.0,1.0,88,0.00,,,0.01,Wunderground v.1.15,2013-05-23 06:55:00,
2013-05-23 03:00:00,55.5,52.0,29.92,East,101,0.0,1.0,88,0.00,,,0.01,Wunderground v.1.15,2013-05-23 07:00:00,
2013-05-23 03:05:00,55.6,52.1,29.92,East,101,0.0,1.0,88,0.00,,,0.01,Wunderground v.1.15,2013-05-23 07:05:00,
2013-05-23 03:10:00,55.7,52.2,29.92,East,101,0.0,1.0,88,0.00,,,0.01,Wunderground v.1.15,2013-05-23 07:10:00,
2013-05-23 03:15:00,55.7,52.2,29.92,East,101,0.0,1.0,88,0.00,,,0.01,Wunderground v.1.15,2013-05-23 07:15:00,
2013-05-23 03:20:00,55.7,52.2,29.92,East,101,0.0,2.0,88,0.00,,,0.01,Wunderground v.1.15,2013-05-23 07:20:00,
2013-05-23 03:25:00,55.7,52.2,29.91,East,101,0.0,1.0,88,0.00,,,0.01,Wunderground v.1.15,2013-05-23 07:25:00,
2013-05-23 03:30:00,55.8,52.3,29.91,ESE,102,1.0,2.0,88,0.00,,,0.01,Wunderground v.1.15,2013-05-23 07:30:00,
2013-05-23 03:35:00,55.7,52.2,29.91,SSE,155,0.0,3.0,88,0.00,,,0.01,Wunderground v.1.15,2013-05-23 07:35:00,
2013-05-23 03:40:00,55.7,52.2,29.92,SSE,155,1.0,3.0,88,0.00,,,0.01,Wunderground v.1.15,2013-05-23 07:40:00,
2013-05-23 03:45:00,55.7,52.2,29.92,SSE,155,0.0,1.0,88,0.00,,,0.01,Wunderground v.1.15,2013-05-23 07:45:00,
2013-05-23 03:50:00,55.7,52.2,29.91,SSE,155,0.0,2.0,88,0.00,,,0.01,Wunderground v.1.15,2013-05-23 07:50:00,
2013-05-23 03:55:00,55.7,52.2,29.91,SSE,155,0.0,0.0,88,0.00,,,0.01,Wunderground v.1.15,2013-05-23 07:55:00,
2013-05-23 04:00:00,55.7,52.2,29.92,SSE,155,0.0,0.0,88,0.00,,,0.01,Wunderground v.1.15,2013-05-23 08:00:00,
2013-05-23 04:05:00,55.7,52.2,29.92,SSE,155,0.0,0.0,88,0.00,,,0.01,Wunderground v.1.15,2013-05-23 08:05:00,
2013-05-23 04:10:00,55.8,52.3,29.92,SSE,155,0.0,0.0,88,0.00,,,0.01,Wunderground v.1.15,2013-05-23 08:10:00,
2013-05-23 04:15:00,55.9,52.4,29.91,SSE,155,0.0,1.0,88,0.00,,,0.01,Wunderground v.1.15,2013-05-23 08:15:00,
2013-05-23 04:20:00,56.0,52.5,29.91,SSE,155,0.0,1.0,88,0.00,,,0.01,Wunderground v.1.15,2013-05-23 08:20:00,
2013-05-23 04:25:00,56.1,52.6,29.92,SSE,155,0.0,1.0,88,0.00,,,0.01,Wunderground v.1.15,2013-05-23 08:25:00,
2013-05-23 04:30:00,56.2,52.7,29.92,SSE,155,0.0,1.0,88,0.00,,,0.01,Wunderground v.1.15,2013-05-23 08:30:00,
2013-05-23 04:35:00,56.2,52.7,29.92,SSE,155,0.0,0.0,88,0.00,,,0.01,Wunderground v.1.15,2013-05-23 08:35:00,
2013-05-23 04:40:00,56.3,52.8,29.92,SSE,155,0.0,0.0,88,0.00,,,0.01,Wunderground v.1.15,2013-05-23 08:40:00,
2013-05-23 04:45:00,56.4,52.9,29.91,SSE,155,0.0,0.0,88,0.00,,,0.01,Wunderground v.1.15,2013-05-23 08:45:00,
2013-05-23 04:50:00,56.6,52.8,29.92,SSE,155,0.0,1.0,87,0.00,,,0.01,Wunderground v.1.15,2013-05-23 08:50:00,
2013-05-23 04:55:00,56.6,52.8,29.92,SSE,155,0.0,0.0,87,0.00,,,0.01,Wunderground v.1.15,2013-05-23 08:55:00,
2013-05-23 05:00:00,56.7,52.9,29.92,SSE,155,0.0,0.0,87,0.00,,,0.01,Wunderground v.1.15,2013-05-23 09:00:00,
2013-05-23 05:05:00,56.8,53.0,29.92,SSE,155,0.0,1.0,87,0.00,,,0.01,Wunderground v.1.15,2013-05-23 09:05:00,
2013-05-23 05:10:00,56.9,53.4,29.92,SSE,155,0.0,1.0,88,0.00,,,0.01,Wunderground v.1.15,2013-05-23 09:10:00,
2013-05-23 05:15:00,57.0,53.5,29.92,SSE,155,0.0,0.0,88,0.00,,,0.01,Wunderground v.1.15,2013-05-23 09:15:00,
2013-05-23 05:20:00,57.0,53.5,29.92,SSE,155,0.0,0.0,88,0.00,,,0.01,Wunderground v.1.15,2013-05-23 09:20:00,
2013-05-23 05:25:00,57.1,53.6,29.92,SSE,155,0.0,0.0,88,0.00,,,0.01,Wunderground v.1.15,2013-05-23 09:25:00,
2013-05-23 05:30:00,57.2,53.7,29.92,SSE,155,0.0,0.0,88,0.00,,,0.01,Wunderground v.1.15,2013-05-23 09:30:00,
2013-05-23 05:35:00,57.3,53.5,29.92,SSE,155,0.0,0.0,87,0.00,,,0.01,Wunderground v.1.15,2013-05-23 09:35:00,
2013-05-23 05:40:00,57.4,53.6,29.92,SSE,155,0.0,0.0,87,0.00,,,0.01,Wunderground v.1.15,2013-05-23 09:40:00,
2013-05-23 05:45:00,58.0,54.2,29.92,SSE,155,1.0,1.0,87,0.00,,,0.01,Wunderground v.1.15,2013-05-23 09:45:00,
2013-05-23 05:50:00,59.6,55.7,29.92,SSE,155,0.0,1.0,87,0.00,,,0.01,Wunderground v.1.15,2013-05-23 09:50:00,
2013-05-23 05:55:00,60.3,56.4,29.92,SSE,155,0.0,0.0,87,0.00,,,0.01,Wunderground v.1.15,2013-05-23 09:55:00,
2013-05-23 06:00:00,59.2,55.3,29.92,SSE,155,0.0,0.0,87,0.00,,,0.01,Wunderground v.1.15,2013-05-23 10:00:00,
2013-05-23 06:05:00,58.9,55.4,29.92,SSE,155,0.0,1.0,88,0.00,,,0.01,Wunderground v.1.15,2013-05-23 10:05:00,
2013-05-23 06:10:00,58.8,54.9,29.93,SSE,155,0.0,1.0,87,0.00,,,0.01,Wunderground v.1.15,2013-05-23 10:10:00,
2013-05-23 06:15:00,58.8,54.9,29.93,SSE,155,0.0,1.0,87,0.00,,,0.01,Wunderground v.1.15,2013-05-23 10:15:00,
2013-05-23 06:20:00,59.2,55.6,29.93,SSE,155,0.0,1.0,88,0.00,,,0.01,Wunderground v.1.15,2013-05-23 10:20:00,
2013-05-23 06:25:00,59.5,55.6,29.93,SSE,155,0.0,1.0,87,0.00,,,0.01,Wunderground v.1.15,2013-05-23 10:25:00,
2013-05-23 06:30:00,59.9,56.3,29.93,SSE,155,0.0,2.0,88,0.00,,,0.01,Wunderground v.1.15,2013-05-23 10:30:00,
2013-05-23 06:35:00,60.2,56.3,29.93,SSE,157,1.0,3.0,87,0.00,,,0.01,Wunderground v.1.15,2013-05-23 10:35:00,
2013-05-23 06:40:00,60.9,57.0,29.93,South,173,3.0,8.0,87,0.00,,,0.01,Wunderground v.1.15,2013-05-23 10:40:00,
2013-05-23 06:45:00,61.7,57.8,29.93,South,186,0.0,5.0,87,0.00,,,0.01,Wunderground v.1.15,2013-05-23 10:45:00,
2013-05-23 06:50:00,62.4,58.5,29.93,South,182,3.0,6.0,87,0.00,,,0.01,Wunderground v.1.15,2013-05-23 10:50:00,
2013-05-23 06:55:00,62.7,58.8,29.93,SW,234,2.0,8.0,87,0.00,,,0.01,Wunderground v.1.15,2013-05-23 10:55:00,
2013-05-23 07:00:00,62.9,59.3,29.93,SSW,211,0.0,8.0,88,0.00,,,0.01,Wunderground v.1.15,2013-05-23 11:00:00,
2013-05-23 07:05:00,63.0,59.4,29.93,SSW,205,2.0,3.0,88,0.00,,,0.01,Wunderground v.1.15,2013-05-23 11:05:00,
2013-05-23 07:10:00,63.1,59.2,29.93,SSW,205,0.0,3.0,87,0.00,,,0.01,Wunderground v.1.15,2013-05-23 11:10:00,
2013-05-23 07:15:00,63.2,59.3,29.93,SSW,205,1.0,5.0,87,0.00,,,0.01,Wunderground v.1.15,2013-05-23 11:15:00,
2013-05-23 07:20:00,63.4,59.5,29.93,SW,215,2.0,5.0,87,0.00,,,0.01,Wunderground v.1.15,2013-05-23 11:20:00,
2013-05-23 07:25:00,63.4,59.8,29.93,SW,215,0.0,1.0,88,0.00,,,0.01,Wunderground v.1.15,2013-05-23 11:25:00,
2013-05-23 07:30:00,63.5,59.9,29.93,SW,215,0.0,2.0,88,0.00,,,0.01,Wunderground v.1.15,2013-05-23 11:30:00,
2013-05-23 07:35:00,63.6,60.0,29.93,SSW,206,2.0,5.0,88,0.00,,,0.01,Wunderground v.1.15,2013-05-23 11:35:00,
2013-05-23 07:40:00,63.8,60.2,29.93,SSW,205,0.0,5.0,88,0.00,,,0.01,Wunderground v.1.15,2013-05-23 11:40:00,
2013-05-23 07:45:00,63.9,60.0,29.93,SSW,200,1.0,5.0,87,0.00,,,0.01,Wunderground v.1.15,2013-05-23 11:45:00,
2013-05-23 07:50:00,64.0,60.1,29.93,SSW,194,1.0,8.0,87,0.00,,,0.01,Wunderground v.1.15,2013-05-23 11:50:00,
2013-05-23 07:55:00,64.2,60.6,29.93,SSE,160,2.0,7.0,88,0.00,,,0.01,Wunderground v.1.15,2013-05-23 11:55:00,
2013-05-23 08:00:00,64.3,60.7,29.93,South,182,2.0,8.0,88,0.00,,,0.01,Wunderground v.1.15,2013-05-23 12:00:00,
2013-05-23 08:05:00,64.5,60.9,29.93,South,189,1.0,7.0,88,0.00,,,0.01,Wunderground v.1.15,2013-05-23 12:05:00,
2013-05-23 08:10:00,64.6,61.0,29.93,SSW,209,0.0,7.0,88,0.00,,,0.01,Wunderground v.1.15,2013-05-23 12:10:00,
2013-05-23 08:15:00,64.9,61.3,29.93,SSW,209,3.0,5.0,88,0.00,,,0.01,Wunderground v.1.15,2013-05-23 12:15:00,
2013-05-23 08:20:00,65.1,61.5,29.93,SSW,204,2.0,6.0,88,0.00,,,0.01,Wunderground v.1.15,2013-05-23 12:20:00,
2013-05-23 08:25:00,65.0,61.4,29.93,SW,219,10.0,10.0,88,0.00,,,0.01,Wunderground v.1.15,2013-05-23 12:25:00,
2013-05-23 08:30:00,65.2,61.6,29.93,SSW,198,3.0,10.0,88,0.00,,,0.01,Wunderground v.1.15,2013-05-23 12:30:00,
2013-05-23 08:35:00,65.2,61.9,29.93,South,179,4.0,13.0,89,0.00,,,0.01,Wunderground v.1.15,2013-05-23 12:35:00,
2013-05-23 08:40:00,65.4,62.1,29.93,SW,216,1.0,13.0,89,0.00,,,0.01,Wunderground v.1.15,2013-05-23 12:40:00,
2013-05-23 08:45:00,65.6,62.3,29.92,South,188,1.0,7.0,89,0.00,,,0.01,Wunderground v.1.15,2013-05-23 12:45:00,
2013-05-23 08:50:00,65.7,62.4,29.92,SSW,193,3.0,11.0,89,0.00,,,0.01,Wunderground v.1.15,2013-05-23 12:50:00,
2013-05-23 08:55:00,66.0,62.7,29.92,SSE,163,2.0,7.0,89,0.00,,,0.01,Wunderground v.1.15,2013-05-23 12:55:00,
2013-05-23 09:00:00,66.2,62.9,29.92,ESE,117,3.0,11.0,89,0.00,,,0.01,Wunderground v.1.15,2013-05-23 13:00:00,
2013-05-23 09:05:00,66.5,63.2,29.92,SSW,201,3.0,8.0,89,0.00,,,0.01,Wunderground v.1.15,2013-05-23 13:05:00,
2013-05-23 09:10:00,66.8,63.5,29.92,South,176,1.0,8.0,89,0.00,,,0.01,Wunderground v.1.15,2013-05-23 13:10:00,
2013-05-23 09:15:00,66.8,63.5,29.92,SW,221,4.0,9.0,89,0.00,,,0.01,Wunderground v.1.15,2013-05-23 13:15:00,
2013-05-23 09:20:00,66.9,63.6,29.92,SSW,202,10.0,13.0,89,0.00,,,0.01,Wunderground v.1.15,2013-05-23 13:20:00,
2013-05-23 09:25:00,66.9,63.6,29.92,SW,234,1.0,9.0,89,0.00,,,0.01,Wunderground v.1.15,2013-05-23 13:25:00,
2013-05-23 09:30:00,67.0,63.6,29.92,South,173,1.0,9.0,89,0.00,,,0.01,Wunderground v.1.15,2013-05-23 13:30:00,
2013-05-23 09:35:00,67.1,63.7,29.92,SW,235,5.0,8.0,89,0.00,,,0.01,Wunderground v.1.15,2013-05-23 13:35:00,
2013-05-23 09:40:00,67.2,63.8,29.92,WSW,247,4.0,8.0,89,0.00,,,0.01,Wunderground v.1.15,2013-05-23 13:40:00,
2013-05-23 09:45:00,67.6,64.2,29.92,South,191,2.0,7.0,89,0.00,,,0.01,Wunderground v.1.15,2013-05-23 13:45:00,
2013-05-23 09:50:00,67.8,64.4,29.92,West,262,3.0,10.0,89,0.00,,,0.01,Wunderground v.1.15,2013-05-23 13:50:00,
2013-05-23 09:55:00,67.9,64.5,29.92,SSW,194,4.0,13.0,89,0.00,,,0.01,Wunderground v.1.15,2013-05-23 13:55:00,
2013-05-23 10:00:00,67.8,64.1,29.92,SW,223,6.0,13.0,88,0.00,,,0.01,Wunderground v.1.15,2013-05-23 14:00:00,
2013-05-23 10:05:00,67.8,64.1,29.92,ESE,117,1.0,8.0,88,0.00,,,0.01,Wunderground v.1.15,2013-05-23 14:05:00,
2013-05-23 10:10:00,68.0,64.6,29.92,WSW,241,5.0,10.0,89,0.00,,,0.01,Wunderground v.1.15,2013-05-23 14:10:00,
2013-05-23 10:15:00,68.1,64.4,29.92,SSW,211,2.0,11.0,88,0.00,,,0.01,Wunderground v.1.15,2013-05-23 14:15:00,
2013-05-23 10:20:00,68.2,64.5,29.93,WSW,238,1.0,11.0,88,0.00,,,0.01,Wunderground v.1.15,2013-05-23 14:20:00,
2013-05-23 10:25:00,68.0,64.3,29.93,West,259,1.0,11.0,88,0.00,,,0.01,Wunderground v.1.15,2013-05-23 14:25:00,
2013-05-23 10:30:00,67.9,64.2,29.93,SSE,161,6.0,11.0,88,0.00,,,0.01,Wunderground v.1.15,2013-05-23 14:30:00,
2013-05-23 10:35:00,67.9,64.2,29.93,WSW,254,8.0,9.0,88,0.00,,,0.01,Wunderground v.1.15,2013-05-23 14:35:00,
2013-05-23 10:40:00,67.8,64.1,29.93,South,173,7.0,12.0,88,0.00,,,0.01,Wunderground v.1.15,2013-05-23 14:40:00,
2013-05-23 10:45:00,68.0,64.3,29.93,SSW,197,3.0,14.0,88,0.00,,,0.01,Wunderground v.1.15,2013-05-23 14:45:00,
2013-05-23 10:50:00,68.0,64.3,29.93,SSW,208,3.0,14.0,88,0.00,,,0.01,Wunderground v.1.15,2013-05-23 14:50:00,
2013-05-23 10:55:00,68.2,64.5,29.93,SW,229,6.0,13.0,88,0.00,,,0.01,Wunderground v.1.15,2013-05-23 14:55:00,
2013-05-23 11:00:00,68.3,64.6,29.93,SW,227,1.0,13.0,88,0.00,,,0.01,Wunderground v.1.15,2013-05-23 15:00:00,
2013-05-23 11:05:00,68.8,64.8,29.93,SSW,201,1.0,10.0,87,0.00,,,0.01,Wunderground v.1.15,2013-05-23 15:05:00,
2013-05-23 11:10:00,69.4,65.0,29.93,SW,229,8.0,10.0,86,0.00,,,0.01,Wunderground v.1.15,2013-05-23 15:10:00,
2013-05-23 11:15:00,69.5,65.1,29.93,SW,224,1.0,9.0,86,0.00,,,0.01,Wunderground v.1.15,2013-05-23 15:15:00,
2013-05-23 11:20:00,69.9,65.5,29.93,SW,232,4.0,9.0,86,0.00,,,0.01,Wunderground v.1.15,2013-05-23 15:20:00,
2013-05-23 11:25:00,69.7,65.0,29.94,South,175,2.0,9.0,85,0.00,,,0.01,Wunderground v.1.15,2013-05-23 15:25:00,
2013-05-23 11:30:00,69.3,64.6,29.94,ESE,123,3.0,12.0,85,0.00,,,0.01,Wunderground v.1.15,2013-05-23 15:30:00,
2013-05-23 11:35:00,69.1,64.7,29.93,South,188,2.0,14.0,86,0.00,,,0.01,Wunderground v.1.15,2013-05-23 15:35:00,
2013-05-23 11:40:00,69.1,64.7,29.93,South,186,3.0,14.0,86,0.00,,,0.01,Wunderground v.1.15,2013-05-23 15:40:00,
2013-05-23 11:45:00,69.2,65.2,29.94,SW,234,2.0,10.0,87,0.00,,,0.01,Wunderground v.1.15,2013-05-23 15:45:00,
2013-05-23 11:50:00,69.2,65.2,29.94,WSW,246,10.0,11.0,87,0.00,,,0.01,Wunderground v.1.15,2013-05-23 15:50:00,
2013-05-23 11:55:00,68.8,64.8,29.94,WSW,249,8.0,9.0,87,0.00,,,0.01,Wunderground v.1.15,2013-05-23 15:55:00,
2013-05-23 12:00:00,68.6,64.6,29.94,SSW,203,1.0,10.0,87,0.00,,,0.01,Wunderground v.1.15,2013-05-23 16:00:00,
2013-05-23 12:05:00,68.6,64.9,29.93,SW,234,5.0,9.0,88,0.00,,,0.01,Wunderground v.1.15,2013-05-23 16:05:00,
2013-05-23 12:10:00,68.4,64.4,29.93,South,173,5.0,12.0,87,0.00,,,0.01,Wunderground v.1.15,2013-05-23 16:10:00,
2013-05-23 12:15:00,68.5,64.8,29.94,SW,215,5.0,7.0,88,0.00,,,0.01,Wunderground v.1.15,2013-05-23 16:15:00,
2013-05-23 12:20:00,68.5,64.8,29.94,South,173,3.0,12.0,88,0.00,,,0.01,Wunderground v.1.15,2013-05-23 16:20:00,
2013-05-23 12:25:00,68.5,64.8,29.94,SSE,164,5.0,8.0,88,0.00,,,0.01,Wunderground v.1.15,2013-05-23 16:25:00,
2013-05-23 12:30:00,68.4,64.7,29.93,SSW,196,3.0,11.0,88,0.00,,,0.01,Wunderground v.1.15,2013-05-23 16:30:00,
2013-05-23 12:35:00,68.3,64.6,29.93,SSE,167,9.0,12.0,88,0.00,,,0.02,Wunderground v.1.15,2013-05-23 16:35:00,
2013-05-23 12:40:00,68.7,65.0,29.92,SW,236,1.0,12.0,88,0.00,,,0.02,Wunderground v.1.15,2013-05-23 16:40:00,
2013-05-23 12:45:00,69.2,65.2,29.92,South,182,2.0,11.0,87,0.00,,,0.02,Wunderground v.1.15,2013-05-23 16:45:00,
2013-05-23 12:50:00,69.8,65.4,29.92,SW,227,3.0,11.0,86,0.00,,,0.02,Wunderground v.1.15,2013-05-23 16:50:00,
2013-05-23 12:55:00,70.5,65.8,29.92,South,182,4.0,11.0,85,0.00,,,0.02,Wunderground v.1.15,2013-05-23 16:55:00,
2013-05-23 13:00:00,70.9,65.8,29.91,SW,223,5.0,13.0,84,0.00,,,0.02,Wunderground v.1.15,2013-05-23 17:00:00,
2013-05-23 13:05:00,71.6,65.8,29.91,SE,131,8.0,10.0,82,0.00,,,0.02,Wunderground v.1.15,2013-05-23 17:05:00,
2013-05-23 13:10:00,72.0,66.2,29.91,SSE,149,5.0,14.0,82,0.00,,,0.02,Wunderground v.1.15,2013-05-23 17:10:00,
2013-05-23 13:15:00,71.8,66.0,29.91,SSE,153,5.0,10.0,82,0.00,,,0.02,Wunderground v.1.15,2013-05-23 17:15:00,
2013-05-23 13:20:00,71.8,66.0,29.91,SSE,166,4.0,12.0,82,0.00,,,0.02,Wunderground v.1.15,2013-05-23 17:20:00,
2013-05-23 13:25:00,71.8,66.4,29.91,SSW,207,6.0,12.0,83,0.00,,,0.02,Wunderground v.1.15,2013-05-23 17:25:00,
2013-05-23 13:30:00,71.5,66.1,29.91,SSW,204,3.0,12.0,83,0.00,,,0.02,Wunderground v.1.15,2013-05-23 17:30:00,
2013-05-23 13:35:00,71.4,66.3,29.91,South,176,5.0,12.0,84,0.00,,,0.02,Wunderground v.1.15,2013-05-23 17:35:00,
2013-05-23 13:40:00,71.0,65.9,29.91,SSE,168,6.0,17.0,84,0.00,,,0.02,Wunderground v.1.15,2013-05-23 17:40:00,
2013-05-23 13:45:00,71.1,66.0,29.91,SSE,150,2.0,11.0,84,0.00,,,0.02,Wunderground v.1.15,2013-05-23 17:45:00,
2013-05-23 13:50:00,71.6,66.5,29.91,WSW,244,8.0,11.0,84,0.00,,,0.02,Wunderground v.1.15,2013-05-23 17:50:00,
2013-05-23 13:55:00,71.4,66.3,29.91,West,263,4.0,16.0,84,0.00,,,0.02,Wunderground v.1.15,2013-05-23 17:55:00,
2013-05-23 14:00:00,71.3,66.2,29.91,SW,214,4.0,16.0,84,0.00,,,0.02,Wunderground v.1.15,2013-05-23 18:00:00,
2013-05-23 14:05:00,71.3,66.2,29.90,SSE,148,4.0,13.0,84,0.00,,,0.02,Wunderground v.1.15,2013-05-23 18:05:00,
2013-05-23 14:10:00,71.7,66.3,29.90,SSW,209,7.0,18.0,83,0.00,,,0.02,Wunderground v.1.15,2013-05-23 18:10:00,
2013-05-23 14:15:00,71.9,66.1,29.90,SSW,210,3.0,16.0,82,0.00,,,0.02,Wunderground v.1.15,2013-05-23 18:15:00,
2013-05-23 14:20:00,71.9,66.1,29.90,South,190,4.0,16.0,82,0.00,,,0.02,Wunderground v.1.15,2013-05-23 18:20:00,
2013-05-23 14:25:00,71.7,65.9,29.91,SSW,196,13.0,17.0,82,0.00,,,0.02,Wunderground v.1.15,2013-05-23 18:25:00,
2013-05-23 14:30:00,72.0,66.2,29.91,SW,219,6.0,17.0,82,0.00,,,0.02,Wunderground v.1.15,2013-05-23 18:30:00,
2013-05-23 14:35:00,71.8,65.7,29.91,SW,236,15.0,22.0,81,0.00,,,0.02,Wunderground v.1.15,2013-05-23 18:35:00,
2013-05-23 14:40:00,71.5,65.7,29.91,WSW,237,4.0,22.0,82,0.00,,,0.02,Wunderground v.1.15,2013-05-23 18:40:00,
2013-05-23 14:45:00,71.3,65.9,29.91,SSE,159,14.0,22.0,83,0.00,,,0.02,Wunderground v.1.15,2013-05-23 18:45:00,
2013-05-23 14:50:00,71.2,65.8,29.91,SW,233,3.0,22.0,83,0.00,,,0.02,Wunderground v.1.15,2013-05-23 18:50:00,
2013-05-23 14:55:00,71.4,66.0,29.90,South,190,6.0,9.0,83,0.00,,,0.02,Wunderground v.1.15,2013-05-23 18:55:00,
2013-05-23 15:00:00,71.5,66.1,29.91,WSW,245,4.0,17.0,83,0.00,,,0.02,Wunderground v.1.15,2013-05-23 19:00:00,
2013-05-23 15:05:00,71.7,65.9,29.90,SSE,159,2.0,15.0,82,0.00,,,0.02,Wunderground v.1.15,2013-05-23 19:05:00,
2013-05-23 15:10:00,71.7,65.9,29.90,SSW,200,4.0,19.0,82,0.00,,,0.02,Wunderground v.1.15,2013-05-23 19:10:00,
2013-05-23 15:15:00,72.0,66.2,29.90,WSW,241,4.0,13.0,82,0.00,,,0.02,Wunderground v.1.15,2013-05-23 19:15:00,
2013-05-23 15:20:00,72.2,66.4,29.90,SSW,197,9.0,14.0,82,0.00,,,0.02,Wunderground v.1.15,2013-05-23 19:20:00,
2013-05-23 15:25:00,72.2,66.4,29.89,South,188,4.0,11.0,82,0.00,,,0.02,Wunderground v.1.15,2013-05-23 19:25:00,
2013-05-23 15:30:00,72.2,66.4,29.89,South,185,4.0,11.0,82,0.00,,,0.02,Wunderground v.1.15,2013-05-23 19:30:00,
2013-05-23 15:35:00,72.2,66.4,29.89,SSW,195,0.0,9.0,82,0.00,,,0.02,Wunderground v.1.15,2013-05-23 19:35:00,
2013-05-23 15:40:00,72.3,66.1,29.89,South,188,2.0,13.0,81,0.00,,,0.02,Wunderground v.1.15,2013-05-23 19:40:00,
2013-05-23 15:45:00,72.3,65.8,29.89,SSE,153,2.0,15.0,80,0.00,,,0.02,Wunderground v.1.15,2013-05-23 19:45:00,
2013-05-23 15:50:00,72.4,65.9,29.89,SSW,195,7.0,15.0,80,0.00,,,0.02,Wunderground v.1.15,2013-05-23 19:50:00,
2013-05-23 15:55:00,72.4,65.9,29.88,SSE,155,1.0,9.0,80,0.00,,,0.02,Wunderground v.1.15,2013-05-23 19:55:00,
2013-05-23 16:00:00,72.4,65.9,29.89,SSW,206,4.0,11.0,80,0.00,,,0.02,Wunderground v.1.15,2013-05-23 20:00:00,
2013-05-23 16:05:00,72.2,65.3,29.89,SSW,193,5.0,15.0,79,0.00,,,0.02,Wunderground v.1.15,2013-05-23 20:05:00,
2013-05-23 16:10:00,72.1,65.2,29.88,South,175,6.0,15.0,79,0.00,,,0.02,Wunderground v.1.15,2013-05-23 20:10:00,
2013-05-23 16:15:00,72.2,65.7,29.89,South,186,9.0,12.0,80,0.00,,,0.02,Wunderground v.1.15,2013-05-23 20:15:00,
2013-05-23 16:20:00,72.1,65.2,29.88,SW,228,10.0,16.0,79,0.00,,,0.02,Wunderground v.1.15,2013-05-23 20:20:00,
2013-05-23 16:25:00,71.9,65.4,29.89,SSW,213,5.0,29.0,80,0.00,,,0.02,Wunderground v.1.15,2013-05-23 20:25:00,
2013-05-23 16:30:00,71.7,65.2,29.89,SW,219,4.0,29.0,80,0.00,,,0.02,Wunderground v.1.15,2013-05-23 20:30:00,
2013-05-23 16:35:00,71.6,65.5,29.89,SSE,160,4.0,9.0,81,0.00,,,0.02,Wunderground v.1.15,2013-05-23 20:35:00,
2013-05-23 16:40:00,71.5,65.4,29.89,SSE,150,5.0,15.0,81,0.00,,,0.02,Wunderground v.1.15,2013-05-23 20:40:00,
2013-05-23 16:45:00,71.5,65.4,29.89,SSE,168,4.0,17.0,81,0.00,,,0.02,Wunderground v.1.15,2013-05-23 20:45:00,
2013-05-23 16:50:00,71.5,65.7,29.88,South,183,6.0,17.0,82,0.00,,,0.02,Wunderground v.1.15,2013-05-23 20:50:00,
2013-05-23 16:55:00,71.5,65.7,29.89,South,188,3.0,12.0,82,0.00,,,0.02,Wunderground v.1.15,2013-05-23 20:55:00,
2013-05-23 17:00:00,71.4,65.6,29.89,South,182,5.0,18.0,82,0.00,,,0.02,Wunderground v.1.15,2013-05-23 21:00:00,
2013-05-23 17:05:00,71.4,65.6,29.89,SW,221,2.0,14.0,82,0.00,,,0.02,Wunderground v.1.15,2013-05-23 21:05:00,
2013-05-23 17:10:00,71.3,65.5,29.89,South,185,5.0,17.0,82,0.00,,,0.02,Wunderground v.1.15,2013-05-23 21:10:00,
2013-05-23 17:15:00,71.1,65.3,29.89,South,177,7.0,16.0,82,0.00,,,0.02,Wunderground v.1.15,2013-05-23 21:15:00,
2013-05-23 17:20:00,70.9,65.5,29.89,SSW,207,9.0,16.0,83,0.00,,,0.02,Wunderground v.1.15,2013-05-23 21:20:00,
2013-05-23 17:25:00,70.7,65.3,29.89,WSW,244,3.0,18.0,83,0.00,,,0.02,Wunderground v.1.15,2013-05-23 21:25:00,
2013-05-23 17:30:00,70.5,65.1,29.89,SSE,160,12.0,18.0,83,0.00,,,0.02,Wunderground v.1.15,2013-05-23 21:30:00,
2013-05-23 17:35:00,70.3,64.9,29.89,SE,146,6.0,13.0,83,0.00,,,0.02,Wunderground v.1.15,2013-05-23 21:35:00,
2013-05-23 17:40:00,70.1,65.0,29.89,SSE,153,7.0,13.0,84,0.00,,,0.02,Wunderground v.1.15,2013-05-23 21:40:00,
2013-05-23 17:45:00,70.0,64.9,29.89,South,174,6.0,9.0,84,0.00,,,0.02,Wunderground v.1.15,2013-05-23 21:45:00,
2013-05-23 17:50:00,69.8,64.7,29.89,SE,139,7.0,10.0,84,0.00,,,0.02,Wunderground v.1.15,2013-05-23 21:50:00,
2013-05-23 17:55:00,69.7,64.6,29.89,SSW,209,5.0,19.0,84,0.00,,,0.02,Wunderground v.1.15,2013-05-23 21:55:00,
2013-05-23 18:00:00,69.7,64.6,29.90,SSW,206,6.0,19.0,84,0.00,,,0.02,Wunderground v.1.15,2013-05-23 22:00:00,
2013-05-23 18:05:00,69.6,64.5,29.90,SW,215,8.0,18.0,84,0.00,,,0.02,Wunderground v.1.15,2013-05-23 22:05:00,
2013-05-23 18:10:00,69.4,64.4,29.90,WSW,246,4.0,18.0,84,0.00,,,0.02,Wunderground v.1.15,2013-05-23 22:10:00,
2013-05-23 18:15:00,69.5,64.1,29.90,WSW,241,8.0,14.0,83,0.00,,,0.02,Wunderground v.1.15,2013-05-23 22:15:00,
2013-05-23 18:20:00,69.3,64.3,29.90,SSW,198,10.0,14.0,84,0.00,,,0.02,Wunderground v.1.15,2013-05-23 22:20:00,
2013-05-23 18:25:00,69.3,64.3,29.90,WSW,242,13.0,13.0,84,0.00,,,0.02,Wunderground v.1.15,2013-05-23 22:25:00,
2013-05-23 18:30:00,69.2,64.2,29.90,SW,232,1.0,13.0,84,0.00,,,0.02,Wunderground v.1.15,2013-05-23 22:30:00,
2013-05-23 18:35:00,69.1,64.1,29.90,SSW,193,2.0,10.0,84,0.00,,,0.02,Wunderground v.1.15,2013-05-23 22:35:00,
2013-05-23 18:40:00,69.0,64.0,29.90,SW,234,7.0,16.0,84,0.00,,,0.02,Wunderground v.1.15,2013-05-23 22:40:00,
2013-05-23 18:45:00,68.9,63.9,29.90,SSE,165,2.0,19.0,84,0.00,,,0.02,Wunderground v.1.15,2013-05-23 22:45:00,
2013-05-23 18:50:00,68.8,63.8,29.89,South,179,2.0,19.0,84,0.00,,,0.02,Wunderground v.1.15,2013-05-23 22:50:00,
2013-05-23 18:55:00,68.8,63.8,29.90,South,183,3.0,8.0,84,0.00,,,0.02,Wunderground v.1.15,2013-05-23 22:55:00,
2013-05-23 19:00:00,68.7,63.7,29.90,SSW,197,4.0,12.0,84,0.00,,,0.02,Wunderground v.1.15,2013-05-23 23:00:00,
2013-05-23 19:05:00,68.5,63.5,29.90,SSE,164,5.0,11.0,84,0.00,,,0.02,Wunderground v.1.15,2013-05-23 23:05:00,
2013-05-23 19:10:00,68.4,63.4,29.90,South,188,4.0,17.0,84,0.00,,,0.02,Wunderground v.1.15,2013-05-23 23:10:00,
2013-05-23 19:15:00,68.3,63.6,29.90,SE,124,7.0,14.0,85,0.00,,,0.02,Wunderground v.1.15,2013-05-23 23:15:00,
2013-05-23 19:20:00,68.2,63.5,29.90,South,190,9.0,14.0,85,0.00,,,0.02,Wunderground v.1.15,2013-05-23 23:20:00,
2013-05-23 19:25:00,68.2,63.2,29.90,SSW,202,3.0,14.0,84,0.00,,,0.02,Wunderground v.1.15,2013-05-23 23:25:00,
2013-05-23 19:30:00,68.1,63.1,29.90,SSW,205,11.0,14.0,84,0.00,,,0.02,Wunderground v.1.15,2013-05-23 23:30:00,
2013-05-23 19:35:00,68.1,63.1,29.90,South,169,7.0,16.0,84,0.00,,,0.02,Wunderground v.1.15,2013-05-23 23:35:00,
2013-05-23 19:40:00,68.0,63.3,29.90,SE,133,4.0,17.0,85,0.00,,,0.02,Wunderground v.1.15,2013-05-23 23:40:00,
2013-05-23 19:45:00,67.8,63.1,29.91,SE,127,5.0,17.0,85,0.00,,,0.02,Wunderground v.1.15,2013-05-23 23:45:00,
2013-05-23 19:50:00,67.6,63.3,29.90,SSW,213,9.0,21.0,86,0.00,,,0.02,Wunderground v.1.15,2013-05-23 23:50:00,
2013-05-23 19:55:00,67.5,63.2,29.90,SE,128,5.0,11.0,86,0.00,,,0.02,Wunderground v.1.15,2013-05-23 23:55:00,
2013-05-23 20:00:00,67.5,62.8,29.90,SSE,159,6.0,17.0,85,0.00,,,0.02,Wunderground v.1.15,2013-05-24 00:00:00,
2013-05-23 20:05:00,67.5,62.8,29.90,SSW,195,2.0,14.0,85,0.00,,,0.02,Wunderground v.1.15,2013-05-24 00:05:00,
2013-05-23 20:10:00,67.5,62.8,29.90,SW,225,2.0,14.0,85,0.00,,,0.02,Wunderground v.1.15,2013-05-24 00:10:00,
2013-05-23 20:15:00,67.4,62.7,29.90,SSW,213,2.0,11.0,85,0.00,,,0.02,Wunderground v.1.15,2013-05-24 00:15:00,
2013-05-23 20:20:00,67.3,62.6,29.90,SSE,165,9.0,14.0,85,0.00,,,0.02,Wunderground v.1.15,2013-05-24 00:20:00,
2013-05-23 20:25:00,67.2,62.5,29.90,South,188,5.0,14.0,85,0.00,,,0.02,Wunderground v.1.15,2013-05-24 00:25:00,
2013-05-23 20:30:00,67.1,62.8,29.89,South,180,6.0,14.0,86,0.00,,,0.02,Wunderground v.1.15,2013-05-24 00:30:00,
2013-05-23 20:35:00,67.0,62.7,29.89,SSW,212,8.0,12.0,86,0.00,,,0.02,Wunderground v.1.15,2013-05-24 00:35:00,
2013-05-23 20:40:00,67.0,62.7,29.89,SSW,196,7.0,13.0,86,0.00,,,0.02,Wunderground v.1.15,2013-05-24 00:40:00,
2013-05-23 20:45:00,66.9,62.6,29.89,SE,137,8.0,14.0,86,0.00,,,0.02,Wunderground v.1.15,2013-05-24 00:45:00,
2013-05-23 20:50:00,66.9,62.6,29.89,SSW,195,3.0,14.0,86,0.00,,,0.02,Wunderground v.1.15,2013-05-24 00:50:00,
2013-05-23 20:56:00,66.8,62.5,29.89,South,188,7.0,16.0,86,0.00,,,0.02,Wunderground v.1.15,2013-05-24 00:56:00,
2013-05-23 21:00:00,66.8,62.5,29.89,SSW,213,5.0,18.0,86,0.00,,,0.02,Wunderground v.1.15,2013-05-24 01:00:00,
2013-05-23 21:06:00,66.8,62.5,29.89,SSE,167,6.0,13.0,86,0.00,,,0.02,Wunderground v.1.15,2013-05-24 01:06:00,
2013-05-23 21:11:00,66.7,62.4,29.88,SSW,205,6.0,13.0,86,0.00,,,0.02,Wunderground v.1.15,2013-05-24 01:11:00,
2013-05-23 21:16:00,66.7,62.4,29.88,SSW,205,5.0,8.0,86,0.00,,,0.02,Wunderground v.1.15,2013-05-24 01:16:00,
2013-05-23 21:21:00,66.6,62.3,29.88,SE,142,4.0,14.0,86,0.00,,,0.02,Wunderground v.1.15,2013-05-24 01:21:00,
2013-05-23 21:26:00,66.5,62.2,29.88,SSW,201,8.0,14.0,86,0.00,,,0.02,Wunderground v.1.15,2013-05-24 01:26:00,
2013-05-23 21:31:00,66.4,62.1,29.89,South,185,3.0,14.0,86,0.00,,,0.02,Wunderground v.1.15,2013-05-24 01:31:00,
2013-05-23 21:36:00,66.2,61.9,29.89,South,184,13.0,15.0,86,0.00,,,0.02,Wunderground v.1.15,2013-05-24 01:36:00,
2013-05-23 21:40:00,65.9,61.9,29.89,SE,134,4.0,15.0,87,0.00,,,0.02,Wunderground v.1.15,2013-05-24 01:40:00,
2013-05-23 21:45:00,65.5,61.9,29.89,SSW,202,0.0,9.0,88,0.00,,,0.03,Wunderground v.1.15,2013-05-24 01:45:00,
2013-05-23 21:50:00,65.2,61.6,29.89,SSE,164,2.0,9.0,88,0.88,,,0.06,Wunderground v.1.15,2013-05-24 01:50:00,
2013-05-23 21:55:00,64.7,61.1,29.88,SE,142,3.0,10.0,88,0.23,,,0.10,Wunderground v.1.15,2013-05-24 01:55:00,
2013-05-23 22:00:00,64.4,61.1,29.88,SSE,153,9.0,18.0,89,0.11,,,0.10,Wunderground v.1.15,2013-05-24 02:00:00,
2013-05-23 22:05:00,64.2,60.9,29.88,South,173,2.0,11.0,89,0.11,,,0.11,Wunderground v.1.15,2013-05-24 02:05:00,
2013-05-23 22:10:00,64.1,60.8,29.88,SSW,210,5.0,12.0,89,0.09,,,0.12,Wunderground v.1.15,2013-05-24 02:10:00,
2013-05-23 22:15:00,64.0,60.7,29.88,South,183,6.0,8.0,89,0.07,,,0.12,Wunderground v.1.15,2013-05-24 02:15:00,
2013-05-23 22:20:00,64.0,60.7,29.87,SSW,198,5.0,13.0,89,0.04,,,0.12,Wunderground v.1.15,2013-05-24 02:20:00,
2013-05-23 22:25:00,64.0,60.7,29.87,SSW,192,5.0,12.0,89,0.00,,,0.12,Wunderground v.1.15,2013-05-24 02:25:00,
2013-05-23 22:30:00,64.0,60.7,29.87,South,191,6.0,12.0,89,0.00,,,0.12,Wunderground v.1.15,2013-05-24 02:30:00,
2013-05-23 22:35:00,64.0,60.7,29.87,SW,236,5.0,15.0,89,0.00,,,0.13,Wunderground v.1.15,2013-05-24 02:35:00,
2013-05-23 22:40:00,64.0,60.7,29.87,SW,223,9.0,16.0,89,0.00,,,0.13,Wunderground v.1.15,2013-05-24 02:40:00,
2013-05-23 22:45:00,64.0,60.7,29.87,SSE,162,6.0,12.0,89,0.08,,,0.14,Wunderground v.1.15,2013-05-24 02:45:00,
2013-05-23 22:50:00,64.0,60.7,29.86,SSW,213,5.0,15.0,89,0.35,,,0.16,Wunderground v.1.15,2013-05-24 02:50:00,
2013-05-23 22:55:00,63.9,60.6,29.86,South,185,1.0,8.0,89,0.16,,,0.17,Wunderground v.1.15,2013-05-24 02:55:00,
2013-05-23 23:00:00,63.8,60.5,29.86,South,190,1.0,13.0,89,0.12,,,0.18,Wunderground v.1.15,2013-05-24 03:00:00,
2013-05-23 23:05:00,63.8,60.5,29.86,SSE,161,4.0,15.0,89,0.09,,,0.19,Wunderground v.1.15,2013-05-24 03:05:00,
2013-05-23 23:10:00,63.8,60.5,29.85,South,186,3.0,15.0,89,0.09,,,0.19,Wunderground v.1.15,2013-05-24 03:10:00,
2013-05-23 23:15:00,63.7,60.4,29.85,South,177,7.0,7.0,89,0.07,,,0.20,Wunderground v.1.15,2013-05-24 03:15:00,
2013-05-23 23:20:00,63.7,60.4,29.85,SE,144,3.0,10.0,89,0.07,,,0.20,Wunderground v.1.15,2013-05-24 03:20:00,
2013-05-23 23:25:00,63.8,60.5,29.85,South,186,2.0,10.0,89,0.04,,,0.20,Wunderground v.1.15,2013-05-24 03:25:00,
2013-05-23 23:30:00,63.8,60.5,29.84,South,180,9.0,12.0,89,0.00,,,0.20,Wunderground v.1.15,2013-05-24 03:30:00,
2013-05-23 23:35:00,63.8,60.5,29.84,SSW,205,11.0,11.0,89,0.00,,,0.20,Wunderground v.1.15,2013-05-24 03:35:00,
2013-05-23 23:39:00,63.8,60.5,29.83,SSE,159,6.0,15.0,89,0.00,,,0.21,Wunderground v.1.15,2013-05-24 03:39:00,
2013-05-23 23:40:00,63.8,60.5,29.84,SSE,157,6.0,12.0,89,0.00,,,0.20,Wunderground v.1.15,2013-05-24 03:40:00,
2013-05-23 23:41:00,63.8,60.5,29.83,SE,140,2.0,8.0,89,0.00,,,0.21,Wunderground v.1.15,2013-05-24 03:41:00,
2013-05-23 23:42:00,63.8,60.5,29.83,SSE,168,10.0,10.0,89,0.00,,,0.21,Wunderground v.1.15,2013-05-24 03:42:00,
2013-05-23 23:43:00,63.8,60.5,29.83,South,182,2.0,13.0,89,0.00,,,0.21,Wunderground v.1.15,2013-05-24 03:43:00,
2013-05-23 23:44:00,63.8,60.5,29.83,SSE,150,2.0,13.0,89,0.00,,,0.00,Wunderground v.1.15,2013-05-24 03:44:00,
2013-05-23 23:45:00,63.9,60.6,29.84,South,184,1.0,14.0,89,0.00,,,0.21,Wunderground v.1.15,2013-05-24 03:45:00,
2013-05-23 23:50:00,63.9,60.6,29.84,SSE,147,4.0,14.0,89,0.00,,,0.21,Wunderground v.1.15,2013-05-24 03:50:00,
2013-05-23 23:56:00,64.0,60.7,29.83,SW,219,4.0,11.0,89,0.00,,,0.21,Wunderground v.1.15,2013-05-24 03:56:00,